Etusivu
METAR-TAF:

METAR-TAF

Lentoasemat :

Puerto Francisco de Orellana, Ecuador

Leveyspiiri: 00-27-46S, Pituuspiiri: 076-59-12W, korkeus merenpinnasta: 254 m

Tämänhetkinen sää

Tämä raportti tehtiin 1 tunti ja 0 minuuttia sitten, kello 16.00 UTC
Tuuli 4 kn lounaasta
Lämpötila 25°C
Kosteus 94%
Ilmanpaine 1016 hPa
Näkyvyys 10 km tai enemmän
Hajanaisia pilviä 2000 ft:n korkeudessa
Hajonneita pilviä 10000 ft:n korkeudessa

METAR: SECO 131600Z 22004KT 9999 SCT020 BKN100 25/24 Q1016 RMK A3000

Aika: 12:00 (17:00 UTC)


TAF: puuttuu

Säähavainnot ja -ennusteet yli 4000 lentoasemalta (METAR- ja TAF-raportit).

Käytössä olevat sääasemat on merkitty karttaan keltaisilla ja punaisilla pisteillä.

Aseta hiiri pisteen päälle nähdäksesi sääaseman nimen.

Klikkaa sitten nähdäksesi säähavainnot ja -ennusteet.

Kartan vaihtaminen: klikkaa mustalla rastilla varustettuja vihreitä pisteitä, niin voit zoomata sisään; viivalla varustettua vihreää pistettä, niin voit zoomata ulos tai vihreitä nuolia, niin pääset viereisille kartoille.


METAR-TAF: